Ashton, Kansas
Current Conditions -  °F | °C
As of 12:54 PM on Thursday 30 Oct 2014 (Local Time) from KWLD Reporting Station
Clear Clear  
Wind Chill: 22°   Ceiling: Unl
Heat Index: 22°   Visibility: 10mi
Dew Point:   Wind: 18mph
Humidity: 29%   Direction: 350°N
Pressure: 30.14"   Gusts: NA
Location:  37.0641°N, 97.2025°W
Report Text: KWLD 301754Z AUTO 35016KT 10SM CLR 22/03 A3014 RMK AO2 PK WND 35026/1731 SLP200 T02220033 10222 20100 50003
Loading
Personal Weather Stations






























Interactive Weather Map
Tropical Storm Tracking
New forecast layout! Learn more

10-Day Weather Forecast

Advertisements
Track Severe Weather on mobile